Time;durP1;ratioP1;P1;durP2;ratioP2;P2;SDS_P1;SDS_P2;PMS_P1;PMS_P2;Temp;Humidity;BMP_temperature;BMP_pressure;BME280_temperature;BME280_humidity;BME280_pressure;Samples;Min_cycle;Max_cycle;Signal;HPM_P1;HPM_P2
2021/03/02 00:00:17;;;;;;;0.20;0.20;;;;;;;;;;5010059;28;20674;-66
2021/03/02 00:02:44;;;;;;;0.00;0.00;;;;;;;;;;5010767;28;20215;-65
2021/03/02 00:05:11;;;;;;;0.97;0.27;;;;;;;;;;5007495;28;20179;-65
2021/03/02 00:07:40;;;;;;;1.70;1.60;;;;;;;;;;5006662;28;20254;-65
2021/03/02 00:10:08;;;;;;;1.37;1.37;;;;;;;;;;5006793;28;20234;-65
2021/03/02 00:12:35;;;;;;;0.00;0.00;;;;;;;;;;5010134;28;20191;-66
2021/03/02 00:15:02;;;;;;;0.20;0.20;;;;;;;;;;5012231;28;20607;-65
2021/03/02 00:17:32;;;;;;;0.00;0.00;;;;;;;;;;5012315;28;20211;-65
2021/03/02 00:20:08;;;;;;;0.00;0.00;;;;;;;;;;5012231;28;20186;-65
2021/03/02 00:22:41;;;;;;;0.00;0.00;;;;;;;;;;5023312;28;20186;-66
2021/03/02 00:25:09;;;;;;;0.00;0.00;;;;;;;;;;5009316;28;20244;-66
2021/03/02 00:27:39;;;;;;;5.43;0.60;;;;;;;;;;5022011;28;20294;-66
2021/03/02 00:30:06;;;;;;;0.00;0.00;;;;;;;;;;5007260;28;20195;-65
2021/03/02 00:32:32;;;;;;;0.27;0.27;;;;;;;;;;5009844;28;20248;-66
2021/03/02 00:34:59;;;;;;;0.00;0.00;;;;;;;;;;5006678;28;20284;-66
2021/03/02 00:37:26;;;;;;;4.43;0.47;;;;;;;;;;5006974;28;20235;-67
2021/03/02 00:39:55;;;;;;;0.00;0.00;;;;;;;;;;5003495;28;20707;-67
2021/03/02 00:42:22;;;;;;;3.50;0.70;;;;;;;;;;5003493;28;20195;-66
2021/03/02 00:44:48;;;;;;;0.00;0.00;;;;;;;;;;5002775;28;20281;-66
2021/03/02 00:47:15;;;;;;;4.13;0.27;;;;;;;;;;5007307;28;20215;-66
2021/03/02 00:49:42;;;;;;;0.00;0.00;;;;;;;;;;5020653;28;20219;-67
2021/03/02 00:52:10;;;;;;;0.00;0.00;;;;;;;;;;5020387;28;20210;-67
2021/03/02 00:54:37;;;;;;;2.30;0.90;;;;;;;;;;5023671;28;20210;-67
2021/03/02 00:57:04;;;;;;;5.07;0.90;;;;;;;;;;5025417;28;20185;-66
2021/03/02 00:59:32;;;;;;;0.93;0.67;;;;;;;;;;5026253;28;20209;-66
2021/03/02 01:01:58;;;;;;;0.00;0.00;;;;;;;;;;5027182;28;20182;-66
2021/03/02 01:04:25;;;;;;;0.03;0.03;;;;;;;;;;5019739;28;20180;-65
2021/03/02 01:06:51;;;;;;;0.00;0.00;;;;;;;;;;5018052;28;20346;-65
2021/03/02 01:09:18;;;;;;;0.00;0.00;;;;;;;;;;5020040;28;20272;-65
2021/03/02 01:11:47;;;;;;;1.10;0.20;;;;;;;;;;5018945;28;21870;-65
2021/03/02 01:14:14;;;;;;;0.00;0.00;;;;;;;;;;5021296;28;20278;-66
2021/03/02 01:16:40;;;;;;;0.93;0.90;;;;;;;;;;5022162;28;20282;-65
2021/03/02 01:19:09;;;;;;;7.00;0.47;;;;;;;;;;5016806;28;20261;-66
2021/03/02 01:21:37;;;;;;;2.20;0.30;;;;;;;;;;5015813;28;20200;-67
2021/03/02 01:24:04;;;;;;;4.00;0.33;;;;;;;;;;5020208;28;20188;-66
2021/03/02 01:26:34;;;;;;;1.60;0.33;;;;;;;;;;5020843;28;20186;-66
2021/03/02 01:29:01;;;;;;;0.13;0.10;;;;;;;;;;5019383;28;20853;-66
2021/03/02 01:31:30;;;;;;;0.33;0.33;;;;;;;;;;5022881;28;20192;-66
2021/03/02 01:33:56;;;;;;;1.90;0.37;;;;;;;;;;5020520;28;20195;-67
2021/03/02 01:36:23;;;;;;;0.00;0.00;;;;;;;;;;5012366;28;20747;-66
2021/03/02 01:38:50;;;;;;;0.30;0.30;;;;;;;;;;5010227;28;20203;-66
2021/03/02 01:41:16;;;;;;;7.57;1.40;;;;;;;;;;5015602;28;20193;-66
2021/03/02 01:43:43;;;;;;;0.10;0.10;;;;;;;;;;5013117;28;20186;-66
2021/03/02 01:46:10;;;;;;;2.37;1.03;;;;;;;;;;5021213;28;20237;-66
2021/03/02 01:48:37;;;;;;;0.33;0.13;;;;;;;;;;5020789;28;20207;-66
2021/03/02 01:51:05;;;;;;;3.60;1.43;;;;;;;;;;5020312;28;20310;-66
2021/03/02 01:53:33;;;;;;;2.20;1.30;;;;;;;;;;5018396;28;20199;-66
2021/03/02 01:56:00;;;;;;;0.00;0.00;;;;;;;;;;5018181;28;20185;-66
2021/03/02 01:58:27;;;;;;;0.73;0.40;;;;;;;;;;5021858;28;20194;-66
2021/03/02 02:00:58;;;;;;;0.10;0.10;;;;;;;;;;5021553;28;20190;-66
2021/03/02 02:03:36;;;;;;;6.60;0.67;;;;;;;;;;5018027;28;20307;-66
2021/03/02 02:06:05;;;;;;;0.00;0.00;;;;;;;;;;5015321;28;20204;-66
2021/03/02 02:08:40;;;;;;;2.10;0.93;;;;;;;;;;5014644;28;20241;-66
2021/03/02 02:11:17;;;;;;;0.73;0.73;;;;;;;;;;5008229;28;20184;-66
2021/03/02 02:13:48;;;;;;;3.60;1.10;;;;;;;;;;5023832;28;20286;-66
2021/03/02 02:16:17;;;;;;;0.20;0.20;;;;;;;;;;5011593;28;20707;-66
2021/03/02 02:18:44;;;;;;;0.33;0.33;;;;;;;;;;5027863;28;20696;-66
2021/03/02 02:21:11;;;;;;;0.10;0.10;;;;;;;;;;5023177;28;20191;-66
2021/03/02 02:23:40;;;;;;;1.40;0.80;;;;;;;;;;5022419;28;20196;-66
2021/03/02 02:26:25;;;;;;;1.50;0.77;;;;;;;;;;5023122;28;20190;-66
2021/03/02 02:28:52;;;;;;;0.57;0.57;;;;;;;;;;5026283;28;20298;-66
2021/03/02 02:31:19;;;;;;;1.00;0.77;;;;;;;;;;5018875;28;20182;-66
2021/03/02 02:33:47;;;;;;;0.27;0.27;;;;;;;;;;5008148;28;20302;-66
2021/03/02 02:36:16;;;;;;;0.67;0.50;;;;;;;;;;5019040;28;20268;-66
2021/03/02 02:38:48;;;;;;;4.40;1.23;;;;;;;;;;5022282;28;20190;-66
2021/03/02 02:41:16;;;;;;;3.77;0.53;;;;;;;;;;5026061;28;20187;-66
2021/03/02 02:43:43;;;;;;;1.40;0.40;;;;;;;;;;5026495;28;20195;-66
2021/03/02 02:46:10;;;;;;;1.63;0.23;;;;;;;;;;5014114;28;20298;-66
2021/03/02 02:48:39;;;;;;;0.00;0.00;;;;;;;;;;5017325;28;20264;-66
2021/03/02 02:51:06;;;;;;;1.43;0.20;;;;;;;;;;5023937;28;20183;-66
2021/03/02 02:53:34;;;;;;;5.23;1.53;;;;;;;;;;5020677;28;20181;-66
2021/03/02 02:56:02;;;;;;;4.23;0.33;;;;;;;;;;5016360;28;21143;-66
2021/03/02 02:58:34;;;;;;;0.00;0.00;;;;;;;;;;5024679;28;20211;-66
2021/03/02 03:01:02;;;;;;;1.03;0.97;;;;;;;;;;5023252;28;20246;-66
2021/03/02 03:03:30;;;;;;;0.53;0.40;;;;;;;;;;5023807;28;21066;-66
2021/03/02 03:05:58;;;;;;;0.00;0.00;;;;;;;;;;5023531;28;20251;-66
2021/03/02 03:08:34;;;;;;;6.80;0.40;;;;;;;;;;5029579;28;20993;-66
2021/03/02 03:11:02;;;;;;;0.00;0.00;;;;;;;;;;5032062;28;20197;-66
2021/03/02 03:13:35;;;;;;;0.20;0.20;;;;;;;;;;5019287;28;20179;-66
2021/03/02 03:16:05;;;;;;;0.00;0.00;;;;;;;;;;5011500;28;20181;-66
2021/03/02 03:18:35;;;;;;;0.00;0.00;;;;;;;;;;5007368;28;20222;-66
2021/03/02 03:21:03;;;;;;;0.83;0.80;;;;;;;;;;5007448;28;20580;-66
2021/03/02 03:23:31;;;;;;;1.70;0.77;;;;;;;;;;5007780;28;20909;-66
2021/03/02 03:25:57;;;;;;;0.00;0.00;;;;;;;;;;5010395;28;20186;-66
2021/03/02 03:28:25;;;;;;;3.50;0.50;;;;;;;;;;5008120;28;20219;-66
2021/03/02 03:30:52;;;;;;;3.57;1.93;;;;;;;;;;5011947;28;20307;-66
2021/03/02 03:33:19;;;;;;;0.00;0.00;;;;;;;;;;5007750;28;20171;-66
2021/03/02 03:35:46;;;;;;;1.03;0.53;;;;;;;;;;5015332;28;20183;-66
2021/03/02 03:38:21;;;;;;;1.23;0.63;;;;;;;;;;5028810;28;20314;-66
2021/03/02 03:40:48;;;;;;;0.70;0.37;;;;;;;;;;5027699;28;20193;-66
2021/03/02 03:43:14;;;;;;;0.50;0.50;;;;;;;;;;5008023;28;21166;-66
2021/03/02 03:45:41;;;;;;;0.10;0.10;;;;;;;;;;5009421;28;20267;-66
2021/03/02 03:48:08;;;;;;;0.20;0.20;;;;;;;;;;5031263;28;20289;-66
2021/03/02 03:50:34;;;;;;;0.53;0.53;;;;;;;;;;5026401;28;20183;-66
2021/03/02 03:53:02;;;;;;;0.10;0.10;;;;;;;;;;5019849;28;20233;-66
2021/03/02 03:55:34;;;;;;;0.13;0.13;;;;;;;;;;5006068;28;21124;-66
2021/03/02 03:58:01;;;;;;;3.40;2.90;;;;;;;;;;5021968;28;21072;-66
2021/03/02 04:00:28;;;;;;;0.60;0.50;;;;;;;;;;5024598;28;20217;-66
2021/03/02 04:02:55;;;;;;;7.33;1.23;;;;;;;;;;5011760;28;20293;-66
2021/03/02 04:05:22;;;;;;;5.40;0.73;;;;;;;;;;5019934;28;20214;-66
2021/03/02 04:07:49;;;;;;;0.13;0.13;;;;;;;;;;5017847;28;20733;-66
2021/03/02 04:10:16;;;;;;;9.33;1.40;;;;;;;;;;5008391;28;20186;-66
2021/03/02 04:12:43;;;;;;;0.67;0.67;;;;;;;;;;5004704;28;20719;-66
2021/03/02 04:15:14;;;;;;;0.50;0.50;;;;;;;;;;5004343;28;20441;-66
2021/03/02 04:17:40;;;;;;;0.10;0.10;;;;;;;;;;5023801;28;20182;-66
2021/03/02 04:20:07;;;;;;;4.43;0.53;;;;;;;;;;5022949;28;20192;-66
2021/03/02 04:22:37;;;;;;;0.10;0.10;;;;;;;;;;5024621;28;21092;-67
2021/03/02 04:25:05;;;;;;;0.30;0.30;;;;;;;;;;5026678;28;20229;-66
2021/03/02 04:27:31;;;;;;;0.10;0.10;;;;;;;;;;5012776;28;20207;-66
2021/03/02 04:29:58;;;;;;;6.10;0.73;;;;;;;;;;5028334;28;20175;-66
2021/03/02 04:32:25;;;;;;;1.70;0.27;;;;;;;;;;5027158;28;20293;-66
2021/03/02 04:34:51;;;;;;;1.40;1.17;;;;;;;;;;5017554;28;20191;-66
2021/03/02 04:37:18;;;;;;;14.53;2.13;;;;;;;;;;5005455;28;20189;-66
2021/03/02 04:39:45;;;;;;;0.30;0.30;;;;;;;;;;5007153;28;20388;-66
2021/03/02 04:42:11;;;;;;;3.13;0.77;;;;;;;;;;5016096;28;20186;-66
2021/03/02 04:44:38;;;;;;;3.13;2.97;;;;;;;;;;5006445;28;20183;-66
2021/03/02 04:47:05;;;;;;;0.10;0.10;;;;;;;;;;5004155;28;21083;-66
2021/03/02 04:49:31;;;;;;;0.33;0.30;;;;;;;;;;5017087;28;20312;-66
2021/03/02 04:51:58;;;;;;;0.20;0.20;;;;;;;;;;5018578;28;20283;-66
2021/03/02 04:54:27;;;;;;;0.10;0.10;;;;;;;;;;5008599;28;20183;-66
2021/03/02 04:56:54;;;;;;;0.10;0.10;;;;;;;;;;5012695;28;20283;-66
2021/03/02 04:59:21;;;;;;;0.10;0.10;;;;;;;;;;5011539;28;20200;-66
2021/03/02 05:01:47;;;;;;;0.17;0.17;;;;;;;;;;5011759;28;20182;-66
2021/03/02 05:04:14;;;;;;;0.10;0.10;;;;;;;;;;5010363;28;20197;-66
2021/03/02 05:06:40;;;;;;;6.17;0.60;;;;;;;;;;5015794;28;20877;-66
2021/03/02 05:09:07;;;;;;;0.30;0.30;;;;;;;;;;5009976;28;20273;-66
2021/03/02 05:11:33;;;;;;;1.33;1.10;;;;;;;;;;5003253;28;20315;-66
2021/03/02 05:14:00;;;;;;;0.10;0.10;;;;;;;;;;5009759;28;20205;-66
2021/03/02 05:16:26;;;;;;;6.33;0.97;;;;;;;;;;5004278;28;20186;-66
2021/03/02 05:18:53;;;;;;;1.43;0.63;;;;;;;;;;5007113;28;20187;-66
2021/03/02 05:21:19;;;;;;;0.50;0.50;;;;;;;;;;5007260;28;20192;-66
2021/03/02 05:23:46;;;;;;;2.07;1.07;;;;;;;;;;5006924;28;20314;-66
2021/03/02 05:26:12;;;;;;;1.17;0.77;;;;;;;;;;5004194;28;20180;-66
2021/03/02 05:28:39;;;;;;;1.13;1.03;;;;;;;;;;5008961;28;20198;-66
2021/03/02 05:31:06;;;;;;;1.80;0.43;;;;;;;;;;5007603;28;20184;-66
2021/03/02 05:33:32;;;;;;;1.33;0.67;;;;;;;;;;5001527;28;20722;-66
2021/03/02 05:35:59;;;;;;;6.33;2.23;;;;;;;;;;5010423;28;20175;-66
2021/03/02 05:38:25;;;;;;;0.60;0.60;;;;;;;;;;5006278;28;20206;-66
2021/03/02 05:40:53;;;;;;;3.83;1.30;;;;;;;;;;5003108;28;20274;-66
2021/03/02 05:43:20;;;;;;;2.90;0.40;;;;;;;;;;5009040;28;20207;-66
2021/03/02 05:45:46;;;;;;;5.73;1.73;;;;;;;;;;5000735;28;20277;-65
2021/03/02 05:48:13;;;;;;;0.50;0.50;;;;;;;;;;5003172;28;20965;-66
2021/03/02 05:50:40;;;;;;;4.50;1.13;;;;;;;;;;5002846;28;20425;-66
2021/03/02 05:53:07;;;;;;;0.30;0.30;;;;;;;;;;5022486;28;20186;-66
2021/03/02 05:55:36;;;;;;;6.60;1.70;;;;;;;;;;5013437;28;22076;-66
2021/03/02 05:58:06;;;;;;;3.80;0.97;;;;;;;;;;5005768;28;20242;-66
2021/03/02 06:00:33;;;;;;;1.00;1.00;;;;;;;;;;5005817;28;20579;-66
2021/03/02 06:03:00;;;;;;;2.17;0.33;;;;;;;;;;5005500;28;20264;-66
2021/03/02 06:05:27;;;;;;;0.30;0.30;;;;;;;;;;5005561;28;20184;-66
2021/03/02 06:07:53;;;;;;;24.63;0.70;;;;;;;;;;5006216;28;20255;-66
2021/03/02 06:10:20;;;;;;;0.47;0.47;;;;;;;;;;5004870;28;20900;-66
2021/03/02 06:12:50;;;;;;;1.40;0.77;;;;;;;;;;5005721;28;20211;-66
2021/03/02 06:15:18;;;;;;;0.10;0.10;;;;;;;;;;5006035;28;20207;-66
2021/03/02 06:17:45;;;;;;;0.27;0.27;;;;;;;;;;5002263;28;20182;-66
2021/03/02 06:20:29;;;;;;;0.93;0.37;;;;;;;;;;5007500;28;20214;-66
2021/03/02 06:22:56;;;;;;;0.23;0.23;;;;;;;;;;5004697;28;20210;-66
2021/03/02 06:25:26;;;;;;;1.00;0.80;;;;;;;;;;5008328;28;20213;-66
2021/03/02 06:27:53;;;;;;;3.07;0.60;;;;;;;;;;5005263;28;20272;-66
2021/03/02 06:30:23;;;;;;;6.80;1.27;;;;;;;;;;5008394;28;20680;-66
2021/03/02 06:32:52;;;;;;;0.10;0.10;;;;;;;;;;5004931;28;20588;-66
2021/03/02 06:35:48;;;;;;;2.13;1.23;;;;;;;;;;5006989;28;20174;-66
2021/03/02 06:38:27;;;;;;;0.70;0.47;;;;;;;;;;4994955;28;20202;-66
2021/03/02 06:40:53;;;;;;;0.53;0.53;;;;;;;;;;5003050;28;20193;-66
2021/03/02 06:43:36;;;;;;;4.47;0.77;;;;;;;;;;5005582;28;20306;-66
2021/03/02 06:46:10;;;;;;;3.50;0.97;;;;;;;;;;5018460;28;20191;-66
2021/03/02 06:48:59;;;;;;;4.53;1.17;;;;;;;;;;5002941;28;20941;-66
2021/03/02 06:51:26;;;;;;;0.30;0.30;;;;;;;;;;5005982;28;20256;-66
2021/03/02 06:54:05;;;;;;;2.10;0.37;;;;;;;;;;5009372;28;22144;-66
2021/03/02 06:56:31;;;;;;;0.17;0.17;;;;;;;;;;5034836;28;20710;-66
2021/03/02 06:59:17;;;;;;;5.20;1.20;;;;;;;;;;5021882;28;20249;-66
2021/03/02 07:01:45;;;;;;;8.13;0.53;;;;;;;;;;5007857;28;20200;-66
2021/03/02 07:04:17;;;;;;;1.50;0.77;;;;;;;;;;5012984;28;20205;-66
2021/03/02 07:06:44;;;;;;;0.10;0.10;;;;;;;;;;5008457;28;20729;-66
2021/03/02 07:09:13;;;;;;;0.10;0.10;;;;;;;;;;5009616;28;20249;-66
2021/03/02 07:11:40;;;;;;;0.07;0.07;;;;;;;;;;5010578;28;20292;-66
2021/03/02 07:14:08;;;;;;;0.10;0.10;;;;;;;;;;5006609;28;20192;-66
2021/03/02 07:16:36;;;;;;;0.33;0.30;;;;;;;;;;5007907;28;20183;-66
2021/03/02 07:19:04;;;;;;;0.20;0.20;;;;;;;;;;5007549;28;20979;-65
2021/03/02 07:21:35;;;;;;;1.67;0.33;;;;;;;;;;5007177;28;20181;-66
2021/03/02 07:24:04;;;;;;;0.33;0.30;;;;;;;;;;5007676;28;20655;-66
2021/03/02 07:26:32;;;;;;;0.30;0.30;;;;;;;;;;5008514;28;20195;-65
2021/03/02 07:28:59;;;;;;;0.10;0.10;;;;;;;;;;5004873;28;20205;-65
2021/03/02 07:31:25;;;;;;;0.20;0.20;;;;;;;;;;5007448;28;20168;-66
2021/03/02 07:33:52;;;;;;;0.73;0.73;;;;;;;;;;5020355;28;20187;-66
2021/03/02 07:36:19;;;;;;;0.27;0.27;;;;;;;;;;5026217;28;20166;-66
2021/03/02 07:39:05;;;;;;;4.13;0.20;;;;;;;;;;5014758;28;21009;-66
2021/03/02 07:41:35;;;;;;;1.37;1.30;;;;;;;;;;5006981;28;20525;-66
2021/03/02 07:44:01;;;;;;;0.00;0.00;;;;;;;;;;5005115;28;20186;-66
2021/03/02 07:46:31;;;;;;;0.17;0.17;;;;;;;;;;5007945;28;20193;-66
2021/03/02 07:48:57;;;;;;;0.20;0.20;;;;;;;;;;5005223;28;20762;-66
2021/03/02 07:51:24;;;;;;;1.40;1.40;;;;;;;;;;5009742;28;20840;-65
2021/03/02 07:53:52;;;;;;;0.30;0.10;;;;;;;;;;5005640;28;20843;-66
2021/03/02 07:56:21;;;;;;;0.00;0.00;;;;;;;;;;5006625;28;20219;-66
2021/03/02 07:59:05;;;;;;;0.17;0.17;;;;;;;;;;5022864;28;20215;-66
2021/03/02 08:01:32;;;;;;;0.50;0.43;;;;;;;;;;5030603;28;20189;-66
2021/03/02 08:04:14;;;;;;;0.00;0.00;;;;;;;;;;5011851;28;20178;-66
2021/03/02 08:06:41;;;;;;;0.00;0.00;;;;;;;;;;5008688;28;20192;-66
2021/03/02 08:09:28;;;;;;;0.00;0.00;;;;;;;;;;5005816;28;20242;-66
2021/03/02 08:11:55;;;;;;;0.53;0.53;;;;;;;;;;5007633;28;20509;-66
2021/03/02 08:14:22;;;;;;;0.53;0.53;;;;;;;;;;5006525;28;20178;-66
2021/03/02 08:16:55;;;;;;;1.40;1.03;;;;;;;;;;5018250;28;20188;-66
2021/03/02 08:19:37;;;;;;;0.00;0.00;;;;;;;;;;5020990;28;20181;-66
2021/03/02 08:22:30;;;;;;;8.57;0.63;;;;;;;;;;5005783;28;20348;-66
2021/03/02 08:25:02;;;;;;;0.00;0.00;;;;;;;;;;5004141;28;20182;-66
2021/03/02 08:28:00;;;;;;;0.00;0.00;;;;;;;;;;5009028;28;20440;-66
2021/03/02 08:30:37;;;;;;;0.00;0.00;;;;;;;;;;5008100;28;20196;-66
2021/03/02 08:33:07;;;;;;;0.10;0.10;;;;;;;;;;5007359;28;20179;-66
2021/03/02 08:35:36;;;;;;;0.07;0.07;;;;;;;;;;5007120;28;20182;-66
2021/03/02 08:38:12;;;;;;;7.23;1.43;;;;;;;;;;5006540;28;20209;-66
2021/03/02 08:40:39;;;;;;;0.00;0.00;;;;;;;;;;5004027;28;20344;-66
2021/03/02 08:43:09;;;;;;;0.00;0.00;;;;;;;;;;5007377;28;20182;-66
2021/03/02 08:45:55;;;;;;;1.70;1.03;;;;;;;;;;5010866;28;20226;-66
2021/03/02 13:32:23;;;;;;;3.40;0.40;;;;;;;;;;5075306;27;20568;-64
2021/03/02 13:34:52;;;;;;;0.20;0.20;;;;;;;;;;5073519;28;20206;-64
2021/03/02 13:37:19;;;;;;;0.20;0.20;;;;;;;;;;5073010;28;20724;-64
2021/03/02 13:39:46;;;;;;;0.00;0.00;;;;;;;;;;5075721;28;20186;-64
2021/03/02 13:42:14;;;;;;;0.00;0.00;;;;;;;;;;5074030;28;20697;-64
2021/03/02 13:44:41;;;;;;;0.40;0.40;;;;;;;;;;5070727;28;20279;-65
2021/03/02 13:47:08;;;;;;;0.93;0.80;;;;;;;;;;5071820;28;20181;-65
2021/03/02 13:49:34;;;;;;;1.03;0.67;;;;;;;;;;5075089;28;20182;-65
2021/03/02 13:52:02;;;;;;;0.87;0.60;;;;;;;;;;5074183;28;20198;-65
2021/03/02 13:54:29;;;;;;;0.90;0.53;;;;;;;;;;5070544;28;20175;-65
2021/03/02 13:56:56;;;;;;;0.40;0.10;;;;;;;;;;5072030;28;20224;-65
2021/03/02 13:59:23;;;;;;;0.97;0.50;;;;;;;;;;5069987;28;20641;-64
2021/03/02 14:01:51;;;;;;;1.17;0.23;;;;;;;;;;5071070;28;20644;-65
2021/03/02 14:04:18;;;;;;;0.00;0.00;;;;;;;;;;5072716;28;20182;-64
2021/03/02 14:06:46;;;;;;;0.40;0.17;;;;;;;;;;5073240;28;20178;-64
2021/03/02 14:09:15;;;;;;;0.00;0.00;;;;;;;;;;5072835;28;20179;-64
2021/03/02 14:11:41;;;;;;;2.10;2.00;;;;;;;;;;5070717;28;20191;-65
2021/03/02 14:14:08;;;;;;;0.00;0.00;;;;;;;;;;5091281;28;20174;-64
2021/03/02 14:16:36;;;;;;;2.47;0.20;;;;;;;;;;5073671;28;20170;-64
2021/03/02 14:19:06;;;;;;;1.90;0.73;;;;;;;;;;5074566;28;20178;-64
2021/03/02 14:21:33;;;;;;;0.57;0.40;;;;;;;;;;5071591;28;20193;-64
2021/03/02 14:24:07;;;;;;;0.77;0.57;;;;;;;;;;5077712;28;20269;-64
2021/03/02 14:26:35;;;;;;;0.20;0.20;;;;;;;;;;5084033;28;20181;-64
2021/03/02 14:29:01;;;;;;;0.00;0.00;;;;;;;;;;5069036;28;20182;-64
2021/03/02 14:31:28;;;;;;;0.43;0.00;;;;;;;;;;5069949;28;20218;-64
2021/03/02 14:33:56;;;;;;;1.10;0.20;;;;;;;;;;5069144;28;20236;-65
2021/03/02 14:36:23;;;;;;;0.00;0.00;;;;;;;;;;5071793;28;20263;-64
2021/03/02 14:38:50;;;;;;;5.50;0.20;;;;;;;;;;5071492;28;20171;-64
2021/03/02 14:41:20;;;;;;;0.30;0.00;;;;;;;;;;5072790;28;20190;-65
2021/03/02 14:43:49;;;;;;;0.43;0.30;;;;;;;;;;5060059;28;20501;-64
2021/03/02 14:46:17;;;;;;;2.73;2.53;;;;;;;;;;5074705;28;20175;-65
2021/03/02 14:48:48;;;;;;;3.63;3.30;;;;;;;;;;5058212;28;20209;-65
2021/03/02 14:51:19;;;;;;;0.80;0.80;;;;;;;;;;5054067;28;20253;-64
2021/03/02 14:53:48;;;;;;;0.00;0.00;;;;;;;;;;5060365;28;20281;-65
2021/03/02 14:56:18;;;;;;;0.20;0.20;;;;;;;;;;5057113;28;20198;-65
2021/03/02 14:58:47;;;;;;;1.13;0.47;;;;;;;;;;5056447;28;20275;-65
2021/03/02 15:01:14;;;;;;;0.50;0.27;;;;;;;;;;5060204;28;20786;-65
2021/03/02 15:03:43;;;;;;;0.00;0.00;;;;;;;;;;5058227;28;20210;-65
2021/03/02 15:06:10;;;;;;;6.80;5.17;;;;;;;;;;5059043;28;20922;-65
2021/03/02 15:08:37;;;;;;;5.63;0.50;;;;;;;;;;5060132;28;20287;-65
2021/03/02 15:11:04;;;;;;;0.20;0.20;;;;;;;;;;5058128;28;20244;-65
2021/03/02 15:13:36;;;;;;;1.47;0.97;;;;;;;;;;5054954;28;20487;-65
2021/03/02 15:16:02;;;;;;;0.20;0.20;;;;;;;;;;5055707;28;20171;-65
2021/03/02 15:18:29;;;;;;;0.77;0.60;;;;;;;;;;5057392;28;20171;-65
2021/03/02 15:20:56;;;;;;;0.00;0.00;;;;;;;;;;5057447;28;20183;-64
2021/03/02 15:23:24;;;;;;;0.10;0.10;;;;;;;;;;5057115;28;20179;-64
2021/03/02 15:25:51;;;;;;;7.33;0.20;;;;;;;;;;5054133;28;20187;-64
2021/03/02 15:28:18;;;;;;;0.20;0.20;;;;;;;;;;5058791;28;20247;-65
2021/03/02 15:30:48;;;;;;;0.77;0.77;;;;;;;;;;5057331;28;20218;-65
2021/03/02 15:33:15;;;;;;;3.20;0.23;;;;;;;;;;5056506;28;20550;-64
2021/03/02 15:35:45;;;;;;;0.03;0.03;;;;;;;;;;5053768;28;20179;-64
2021/03/02 15:38:12;;;;;;;0.10;0.10;;;;;;;;;;5056702;28;20827;-64
2021/03/02 15:40:40;;;;;;;0.60;0.40;;;;;;;;;;5056525;28;20190;-64
2021/03/02 15:43:10;;;;;;;6.30;0.40;;;;;;;;;;5055825;28;20655;-64
2021/03/02 15:45:37;;;;;;;2.20;2.00;;;;;;;;;;5053531;28;20179;-64
2021/03/02 15:48:04;;;;;;;0.20;0.20;;;;;;;;;;5055989;28;20181;-64
2021/03/02 15:50:30;;;;;;;0.23;0.10;;;;;;;;;;5057282;28;20198;-64
2021/03/02 15:52:57;;;;;;;0.00;0.00;;;;;;;;;;5057695;28;20568;-64
2021/03/02 15:55:24;;;;;;;0.50;0.10;;;;;;;;;;5058464;28;20248;-65
2021/03/02 15:57:50;;;;;;;0.50;0.10;;;;;;;;;;5058602;28;20175;-64
2021/03/02 16:00:27;;;;;;;3.27;1.37;;;;;;;;;;5058067;28;20186;-64
2021/03/02 16:02:53;;;;;;;1.50;0.33;;;;;;;;;;5037355;28;20178;-64
2021/03/02 16:05:22;;;;;;;3.30;0.23;;;;;;;;;;5057193;28;20619;-65
2021/03/02 16:07:50;;;;;;;0.00;0.00;;;;;;;;;;5058375;28;20565;-64
2021/03/02 16:10:18;;;;;;;0.20;0.10;;;;;;;;;;5059272;28;20212;-65
2021/03/02 16:13:02;;;;;;;2.00;0.70;;;;;;;;;;5056769;28;20343;-65
2021/03/02 16:15:33;;;;;;;3.90;0.37;;;;;;;;;;5058241;28;20183;-64
2021/03/02 16:18:00;;;;;;;2.10;2.00;;;;;;;;;;5056064;28;20302;-64
2021/03/02 16:20:29;;;;;;;0.00;0.00;;;;;;;;;;5059242;28;20669;-64
2021/03/02 16:23:06;;;;;;;1.03;0.37;;;;;;;;;;5055161;28;20179;-65
2021/03/02 16:25:34;;;;;;;0.00;0.00;;;;;;;;;;5050841;28;20178;-65
2021/03/02 16:28:02;;;;;;;0.00;0.00;;;;;;;;;;5057703;28;20177;-65
2021/03/02 16:30:29;;;;;;;2.00;0.57;;;;;;;;;;5058848;28;20223;-64
2021/03/02 16:32:56;;;;;;;0.60;0.17;;;;;;;;;;5058370;28;21022;-64
2021/03/02 16:35:23;;;;;;;0.33;0.33;;;;;;;;;;5057348;28;20179;-64
2021/03/02 16:37:50;;;;;;;0.23;0.23;;;;;;;;;;5055805;28;20175;-64
2021/03/02 16:40:21;;;;;;;5.67;0.30;;;;;;;;;;5053600;28;20203;-65
2021/03/02 16:42:48;;;;;;;0.00;0.00;;;;;;;;;;5057629;28;20179;-64
2021/03/02 16:45:15;;;;;;;0.10;0.10;;;;;;;;;;5061047;28;20180;-64
2021/03/02 16:47:42;;;;;;;2.30;0.40;;;;;;;;;;5056393;28;20188;-64
2021/03/02 16:50:13;;;;;;;1.23;0.83;;;;;;;;;;5057958;28;20199;-64
2021/03/02 16:52:53;;;;;;;7.93;0.83;;;;;;;;;;5058097;28;20577;-64
2021/03/02 16:55:31;;;;;;;0.30;0.20;;;;;;;;;;5055365;28;20676;-64
2021/03/02 16:58:02;;;;;;;1.60;0.30;;;;;;;;;;5052456;28;20528;-64
2021/03/02 17:00:36;;;;;;;2.17;0.20;;;;;;;;;;5054231;28;20167;-64
2021/03/02 17:03:04;;;;;;;0.20;0.20;;;;;;;;;;5056383;28;20185;-64
2021/03/02 17:05:32;;;;;;;2.90;0.40;;;;;;;;;;5057305;28;20181;-64
2021/03/02 17:08:01;;;;;;;1.33;0.33;;;;;;;;;;5054993;28;20194;-64
2021/03/02 17:10:27;;;;;;;0.10;0.10;;;;;;;;;;5055315;28;20676;-64
2021/03/02 17:12:54;;;;;;;1.10;0.30;;;;;;;;;;5053336;28;20750;-64
2021/03/02 17:15:21;;;;;;;0.83;0.57;;;;;;;;;;5058156;28;20173;-64
2021/03/02 17:17:48;;;;;;;0.10;0.10;;;;;;;;;;5058178;28;20340;-64
2021/03/02 17:20:15;;;;;;;1.90;0.57;;;;;;;;;;5053571;28;20175;-64
2021/03/02 17:22:42;;;;;;;1.03;0.20;;;;;;;;;;5055376;28;20183;-64
2021/03/02 17:25:09;;;;;;;0.00;0.00;;;;;;;;;;5054150;28;20200;-64
2021/03/02 17:27:36;;;;;;;0.93;0.57;;;;;;;;;;5055164;28;20175;-65
2021/03/02 17:30:04;;;;;;;0.50;0.10;;;;;;;;;;5053627;28;20179;-65
2021/03/02 17:32:31;;;;;;;1.23;1.17;;;;;;;;;;5055431;28;20178;-65
2021/03/02 17:34:57;;;;;;;8.03;0.70;;;;;;;;;;5052233;28;20176;-65
2021/03/02 17:37:24;;;;;;;0.60;0.60;;;;;;;;;;5055324;28;20594;-65
2021/03/02 17:39:51;;;;;;;0.00;0.00;;;;;;;;;;5054525;28;20258;-65
2021/03/02 17:42:17;;;;;;;0.13;0.13;;;;;;;;;;5056782;28;20185;-65
2021/03/02 17:44:44;;;;;;;0.10;0.10;;;;;;;;;;5054349;28;20741;-65
2021/03/02 17:47:10;;;;;;;0.67;0.27;;;;;;;;;;5053579;28;20171;-65
2021/03/02 17:49:37;;;;;;;0.50;0.50;;;;;;;;;;5052501;28;20281;-64
2021/03/02 17:52:04;;;;;;;0.50;0.20;;;;;;;;;;5056396;28;20195;-65
2021/03/02 17:54:30;;;;;;;1.03;0.33;;;;;;;;;;5054085;28;20264;-64
2021/03/02 17:56:57;;;;;;;0.10;0.10;;;;;;;;;;5054105;28;20176;-64
2021/03/02 17:59:23;;;;;;;0.00;0.00;;;;;;;;;;5056666;28;20176;-64
2021/03/02 18:01:50;;;;;;;0.47;0.20;;;;;;;;;;5056662;28;20281;-65
2021/03/02 18:04:16;;;;;;;3.90;0.37;;;;;;;;;;5056786;28;20258;-65
2021/03/02 18:07:01;;;;;;;0.63;0.10;;;;;;;;;;5056593;28;20179;-65
2021/03/02 18:09:28;;;;;;;1.30;0.20;;;;;;;;;;5058064;28;20261;-65
2021/03/02 18:11:55;;;;;;;0.07;0.07;;;;;;;;;;5058389;28;20302;-65
2021/03/02 18:14:22;;;;;;;1.03;0.30;;;;;;;;;;5051660;28;20976;-65
2021/03/02 18:16:48;;;;;;;0.50;0.20;;;;;;;;;;5056858;28;20179;-65
2021/03/02 18:19:15;;;;;;;0.83;0.30;;;;;;;;;;5058118;28;20252;-65
2021/03/02 18:21:41;;;;;;;0.00;0.00;;;;;;;;;;5061678;28;20803;-65
2021/03/02 18:24:08;;;;;;;0.40;0.13;;;;;;;;;;5057103;28;20205;-65
2021/03/02 18:26:34;;;;;;;1.60;0.23;;;;;;;;;;5059074;28;20170;-65
2021/03/02 18:29:01;;;;;;;0.83;0.53;;;;;;;;;;5058059;28;20179;-65
2021/03/02 18:31:28;;;;;;;1.47;0.23;;;;;;;;;;5058327;28;20226;-65
2021/03/02 18:33:54;;;;;;;0.03;0.03;;;;;;;;;;5061214;28;20167;-65
2021/03/02 18:36:21;;;;;;;3.97;1.23;;;;;;;;;;5060080;28;20182;-65
2021/03/02 18:38:48;;;;;;;0.00;0.00;;;;;;;;;;5062643;28;20179;-65
2021/03/02 18:41:14;;;;;;;0.30;0.00;;;;;;;;;;5059319;28;20226;-64
2021/03/02 18:43:42;;;;;;;0.00;0.00;;;;;;;;;;5060930;28;20211;-65
2021/03/02 18:46:10;;;;;;;1.00;0.13;;;;;;;;;;5062441;28;20194;-65
2021/03/02 18:48:36;;;;;;;0.10;0.10;;;;;;;;;;5069789;28;20260;-65
2021/03/02 18:51:03;;;;;;;0.40;0.40;;;;;;;;;;5058526;28;20203;-65
2021/03/02 18:53:30;;;;;;;0.57;0.57;;;;;;;;;;5058560;28;20630;-64
2021/03/02 18:55:56;;;;;;;0.97;0.63;;;;;;;;;;5055428;28;20176;-64
2021/03/02 18:58:23;;;;;;;0.00;0.00;;;;;;;;;;5057201;28;20171;-64
2021/03/02 19:00:50;;;;;;;7.83;0.77;;;;;;;;;;5057814;28;20936;-64
2021/03/02 19:03:17;;;;;;;0.73;0.27;;;;;;;;;;5074822;28;20240;-64
2021/03/02 19:05:44;;;;;;;1.27;0.10;;;;;;;;;;5060168;28;20270;-64
2021/03/02 19:08:11;;;;;;;1.57;0.67;;;;;;;;;;5055921;28;20194;-64
2021/03/02 19:10:38;;;;;;;0.33;0.30;;;;;;;;;;5058968;28;20811;-64
2021/03/02 19:13:05;;;;;;;1.47;0.67;;;;;;;;;;5055634;28;20180;-64
2021/03/02 19:15:32;;;;;;;1.27;0.17;;;;;;;;;;5056512;28;20218;-64
2021/03/02 19:17:59;;;;;;;2.53;0.10;;;;;;;;;;5058685;28;20183;-64
2021/03/02 19:20:26;;;;;;;1.90;0.10;;;;;;;;;;5058438;28;20284;-65
2021/03/02 19:22:53;;;;;;;8.60;1.13;;;;;;;;;;5057318;28;20190;-65
2021/03/02 19:25:19;;;;;;;3.17;0.50;;;;;;;;;;5059604;28;20182;-64
2021/03/02 19:27:46;;;;;;;0.00;0.00;;;;;;;;;;5056653;28;20270;-64
2021/03/02 19:30:13;;;;;;;4.23;0.73;;;;;;;;;;5056213;28;20230;-65
2021/03/02 19:32:39;;;;;;;0.00;0.00;;;;;;;;;;5058927;28;20608;-64
2021/03/02 19:35:07;;;;;;;8.30;0.40;;;;;;;;;;5057808;28;20193;-64